sensor_id;sensor_type;location;lat;lon;timestamp;temperature;humidity
41116;DHT22;26861;51.824;4.682;2023-07-13T00:00:54;25.40;43.80
41116;DHT22;26861;51.824;4.682;2023-07-13T00:03:22;25.40;43.80
41116;DHT22;26861;51.824;4.682;2023-07-13T00:05:57;25.40;43.80
41116;DHT22;26861;51.824;4.682;2023-07-13T00:08:24;25.40;44.00
41116;DHT22;26861;51.824;4.682;2023-07-13T00:10:52;25.30;43.80
41116;DHT22;26861;51.824;4.682;2023-07-13T00:13:20;25.40;43.80
41116;DHT22;26861;51.824;4.682;2023-07-13T00:15:46;25.30;43.70
41116;DHT22;26861;51.824;4.682;2023-07-13T00:20:38;25.30;43.30
41116;DHT22;26861;51.824;4.682;2023-07-13T00:23:07;25.30;43.90
41116;DHT22;26861;51.824;4.682;2023-07-13T00:25:33;25.30;43.90
41116;DHT22;26861;51.824;4.682;2023-07-13T00:30:24;25.30;43.40
41116;DHT22;26861;51.824;4.682;2023-07-13T00:32:51;25.30;44.00
41116;DHT22;26861;51.824;4.682;2023-07-13T00:35:17;25.30;44.00
41116;DHT22;26861;51.824;4.682;2023-07-13T00:37:44;25.30;44.00
41116;DHT22;26861;51.824;4.682;2023-07-13T00:40:12;25.30;44.00
41116;DHT22;26861;51.824;4.682;2023-07-13T00:42:39;25.30;43.90
41116;DHT22;26861;51.824;4.682;2023-07-13T00:47:41;25.20;44.00
41116;DHT22;26861;51.824;4.682;2023-07-13T00:50:10;25.20;44.10
41116;DHT22;26861;51.824;4.682;2023-07-13T00:52:45;25.20;44.20
41116;DHT22;26861;51.824;4.682;2023-07-13T00:55:13;25.20;44.40
41116;DHT22;26861;51.824;4.682;2023-07-13T00:57:41;25.20;44.20
41116;DHT22;26861;51.824;4.682;2023-07-13T01:00:09;25.20;44.10
41116;DHT22;26861;51.824;4.682;2023-07-13T01:02:40;25.20;44.20
41116;DHT22;26861;51.824;4.682;2023-07-13T01:05:11;25.10;44.10
41116;DHT22;26861;51.824;4.682;2023-07-13T01:07:38;25.10;44.10
41116;DHT22;26861;51.824;4.682;2023-07-13T01:10:05;25.10;44.10
41116;DHT22;26861;51.824;4.682;2023-07-13T01:12:32;25.10;44.20
41116;DHT22;26861;51.824;4.682;2023-07-13T01:15:00;25.10;44.20
41116;DHT22;26861;51.824;4.682;2023-07-13T01:17:28;25.10;44.50
41116;DHT22;26861;51.824;4.682;2023-07-13T01:19:55;25.10;44.40
41116;DHT22;26861;51.824;4.682;2023-07-13T01:22:21;25.10;44.40
41116;DHT22;26861;51.824;4.682;2023-07-13T01:24:51;25.10;44.30
41116;DHT22;26861;51.824;4.682;2023-07-13T01:27:25;25.10;44.40
41116;DHT22;26861;51.824;4.682;2023-07-13T01:29:53;25.10;44.40
41116;DHT22;26861;51.824;4.682;2023-07-13T01:32:22;24.30;44.00
41116;DHT22;26861;51.824;4.682;2023-07-13T01:34:52;25.00;44.40
41116;DHT22;26861;51.824;4.682;2023-07-13T01:37:19;25.10;44.40
41116;DHT22;26861;51.824;4.682;2023-07-13T01:39:46;25.00;44.30
41116;DHT22;26861;51.824;4.682;2023-07-13T01:42:13;25.00;44.30
41116;DHT22;26861;51.824;4.682;2023-07-13T01:44:40;25.00;44.90
41116;DHT22;26861;51.824;4.682;2023-07-13T01:47:07;25.00;44.60
41116;DHT22;26861;51.824;4.682;2023-07-13T01:49:33;25.00;44.70
41116;DHT22;26861;51.824;4.682;2023-07-13T01:51:59;25.00;44.50
41116;DHT22;26861;51.824;4.682;2023-07-13T01:54:26;24.90;44.50
41116;DHT22;26861;51.824;4.682;2023-07-13T01:56:52;24.90;44.50
41116;DHT22;26861;51.824;4.682;2023-07-13T01:59:18;24.90;44.70
41116;DHT22;26861;51.824;4.682;2023-07-13T02:01:44;24.90;44.50
41116;DHT22;26861;51.824;4.682;2023-07-13T02:04:10;24.90;44.60
41116;DHT22;26861;51.824;4.682;2023-07-13T02:06:36;24.90;44.60
41116;DHT22;26861;51.824;4.682;2023-07-13T02:09:03;24.90;44.60
41116;DHT22;26861;51.824;4.682;2023-07-13T02:11:29;24.90;44.70
41116;DHT22;26861;51.824;4.682;2023-07-13T02:14:02;24.90;44.70
41116;DHT22;26861;51.824;4.682;2023-07-13T02:16:28;24.90;44.70
41116;DHT22;26861;51.824;4.682;2023-07-13T02:18:55;24.90;44.70
41116;DHT22;26861;51.824;4.682;2023-07-13T02:21:22;24.90;44.70
41116;DHT22;26861;51.824;4.682;2023-07-13T02:23:49;24.90;44.80
41116;DHT22;26861;51.824;4.682;2023-07-13T02:26:16;24.90;44.80
41116;DHT22;26861;51.824;4.682;2023-07-13T02:28:42;24.80;45.00
41116;DHT22;26861;51.824;4.682;2023-07-13T02:31:11;24.80;44.80
41116;DHT22;26861;51.824;4.682;2023-07-13T02:33:37;24.80;44.80
41116;DHT22;26861;51.824;4.682;2023-07-13T02:36:04;24.80;44.90
41116;DHT22;26861;51.824;4.682;2023-07-13T02:38:32;24.80;44.90
41116;DHT22;26861;51.824;4.682;2023-07-13T02:41:03;24.80;44.90
41116;DHT22;26861;51.824;4.682;2023-07-13T02:43:30;24.80;45.00
41116;DHT22;26861;51.824;4.682;2023-07-13T02:45:56;24.70;45.00
41116;DHT22;26861;51.824;4.682;2023-07-13T02:48:22;24.80;45.00
41116;DHT22;26861;51.824;4.682;2023-07-13T02:50:48;24.70;45.00
41116;DHT22;26861;51.824;4.682;2023-07-13T02:53:14;24.70;45.00
41116;DHT22;26861;51.824;4.682;2023-07-13T02:55:40;24.70;45.00
41116;DHT22;26861;51.824;4.682;2023-07-13T02:58:07;24.70;45.10
41116;DHT22;26861;51.824;4.682;2023-07-13T03:00:33;24.70;45.10
41116;DHT22;26861;51.824;4.682;2023-07-13T03:03:00;24.70;45.10
41116;DHT22;26861;51.824;4.682;2023-07-13T03:05:26;24.70;45.10
41116;DHT22;26861;51.824;4.682;2023-07-13T03:07:52;24.70;45.10
41116;DHT22;26861;51.824;4.682;2023-07-13T03:10:18;24.90;62.20
41116;DHT22;26861;51.824;4.682;2023-07-13T03:12:45;24.70;45.10
41116;DHT22;26861;51.824;4.682;2023-07-13T03:15:12;24.70;45.10
41116;DHT22;26861;51.824;4.682;2023-07-13T03:17:38;24.70;45.20
41116;DHT22;26861;51.824;4.682;2023-07-13T03:20:04;24.60;45.20
41116;DHT22;26861;51.824;4.682;2023-07-13T03:22:31;24.60;45.10
41116;DHT22;26861;51.824;4.682;2023-07-13T03:24:57;24.60;45.30
41116;DHT22;26861;51.824;4.682;2023-07-13T03:27:23;24.60;45.30
41116;DHT22;26861;51.824;4.682;2023-07-13T03:29:50;24.60;45.30
41116;DHT22;26861;51.824;4.682;2023-07-13T03:32:16;24.60;45.30
41116;DHT22;26861;51.824;4.682;2023-07-13T03:34:42;24.60;45.30
41116;DHT22;26861;51.824;4.682;2023-07-13T03:37:08;24.60;45.40
41116;DHT22;26861;51.824;4.682;2023-07-13T03:39:35;24.60;45.40
41116;DHT22;26861;51.824;4.682;2023-07-13T03:42:01;24.50;45.30
41116;DHT22;26861;51.824;4.682;2023-07-13T03:44:27;24.60;45.50
41116;DHT22;26861;51.824;4.682;2023-07-13T03:46:53;24.50;46.00
41116;DHT22;26861;51.824;4.682;2023-07-13T03:49:19;24.50;45.40
41116;DHT22;26861;51.824;4.682;2023-07-13T03:51:45;24.50;45.40
41116;DHT22;26861;51.824;4.682;2023-07-13T03:54:11;24.50;45.40
41116;DHT22;26861;51.824;4.682;2023-07-13T03:56:36;24.50;45.40
41116;DHT22;26861;51.824;4.682;2023-07-13T03:59:02;24.50;46.10
41116;DHT22;26861;51.824;4.682;2023-07-13T04:01:28;24.50;45.50
41116;DHT22;26861;51.824;4.682;2023-07-13T04:03:54;24.50;45.60
41116;DHT22;26861;51.824;4.682;2023-07-13T04:06:22;24.50;45.60
41116;DHT22;26861;51.824;4.682;2023-07-13T04:08:53;24.40;45.60
41116;DHT22;26861;51.824;4.682;2023-07-13T04:11:20;24.40;45.60
41116;DHT22;26861;51.824;4.682;2023-07-13T04:13:47;24.50;45.60
41116;DHT22;26861;51.824;4.682;2023-07-13T04:16:14;24.40;45.70
41116;DHT22;26861;51.824;4.682;2023-07-13T04:18:40;24.50;45.80
41116;DHT22;26861;51.824;4.682;2023-07-13T04:21:07;23.50;45.40
41116;DHT22;26861;51.824;4.682;2023-07-13T04:23:34;24.40;45.90
41116;DHT22;26861;51.824;4.682;2023-07-13T04:26:00;24.40;45.90
41116;DHT22;26861;51.824;4.682;2023-07-13T04:28:26;24.40;46.00
41116;DHT22;26861;51.824;4.682;2023-07-13T04:30:53;24.40;46.00
41116;DHT22;26861;51.824;4.682;2023-07-13T04:33:19;24.40;45.90
41116;DHT22;26861;51.824;4.682;2023-07-13T04:35:50;24.30;63.50
41116;DHT22;26861;51.824;4.682;2023-07-13T04:38:20;24.40;46.00
41116;DHT22;26861;51.824;4.682;2023-07-13T04:40:46;24.50;63.00
41116;DHT22;26861;51.824;4.682;2023-07-13T04:43:12;24.40;46.00
41116;DHT22;26861;51.824;4.682;2023-07-13T04:45:38;24.30;46.00
41116;DHT22;26861;51.824;4.682;2023-07-13T04:48:04;24.40;46.20
41116;DHT22;26861;51.824;4.682;2023-07-13T04:50:31;24.40;46.10
41116;DHT22;26861;51.824;4.682;2023-07-13T04:52:56;24.30;46.10
41116;DHT22;26861;51.824;4.682;2023-07-13T04:55:22;24.30;46.20
41116;DHT22;26861;51.824;4.682;2023-07-13T04:57:48;24.00;63.30
41116;DHT22;26861;51.824;4.682;2023-07-13T05:00:14;24.30;46.10
41116;DHT22;26861;51.824;4.682;2023-07-13T05:02:43;24.50;63.40
41116;DHT22;26861;51.824;4.682;2023-07-13T05:05:09;24.30;46.20
41116;DHT22;26861;51.824;4.682;2023-07-13T05:07:35;24.30;46.20
41116;DHT22;26861;51.824;4.682;2023-07-13T05:10:02;24.30;46.40
41116;DHT22;26861;51.824;4.682;2023-07-13T05:12:29;24.30;46.40
41116;DHT22;26861;51.824;4.682;2023-07-13T05:14:55;24.50;64.00
41116;DHT22;26861;51.824;4.682;2023-07-13T05:17:21;24.20;46.50
41116;DHT22;26861;51.824;4.682;2023-07-13T05:19:47;24.20;46.60
41116;DHT22;26861;51.824;4.682;2023-07-13T05:22:13;24.30;46.50
41116;DHT22;26861;51.824;4.682;2023-07-13T05:24:39;24.30;46.60
41116;DHT22;26861;51.824;4.682;2023-07-13T05:27:05;24.30;46.60
41116;DHT22;26861;51.824;4.682;2023-07-13T05:29:32;24.20;46.60
41116;DHT22;26861;51.824;4.682;2023-07-13T05:31:58;24.30;47.40
41116;DHT22;26861;51.824;4.682;2023-07-13T05:34:25;24.20;47.70
41116;DHT22;26861;51.824;4.682;2023-07-13T05:36:51;24.20;46.80
41116;DHT22;26861;51.824;4.682;2023-07-13T05:39:18;24.20;46.80
41116;DHT22;26861;51.824;4.682;2023-07-13T05:41:44;24.20;46.70
41116;DHT22;26861;51.824;4.682;2023-07-13T05:46:37;24.20;46.30
41116;DHT22;26861;51.824;4.682;2023-07-13T05:49:03;24.20;46.90
41116;DHT22;26861;51.824;4.682;2023-07-13T05:53:56;24.20;46.50
41116;DHT22;26861;51.824;4.682;2023-07-13T05:56:22;24.20;47.00
41116;DHT22;26861;51.824;4.682;2023-07-13T05:58:49;24.20;47.10
41116;DHT22;26861;51.824;4.682;2023-07-13T06:01:15;24.50;64.40
41116;DHT22;26861;51.824;4.682;2023-07-13T06:06:10;24.00;64.20
41116;DHT22;26861;51.824;4.682;2023-07-13T06:08:36;24.20;47.30
41116;DHT22;26861;51.824;4.682;2023-07-13T06:11:10;24.50;64.70
41116;DHT22;26861;51.824;4.682;2023-07-13T06:13:38;24.20;47.50
41116;DHT22;26861;51.824;4.682;2023-07-13T06:16:05;24.50;64.90
41116;DHT22;26861;51.824;4.682;2023-07-13T06:18:33;24.20;47.70
41116;DHT22;26861;51.824;4.682;2023-07-13T06:20:59;23.80;64.50
41116;DHT22;26861;51.824;4.682;2023-07-13T06:23:26;24.20;47.60
41116;DHT22;26861;51.824;4.682;2023-07-13T06:25:52;24.20;47.70
41116;DHT22;26861;51.824;4.682;2023-07-13T06:28:18;24.20;47.70
41116;DHT22;26861;51.824;4.682;2023-07-13T06:30:45;24.20;47.70
41116;DHT22;26861;51.824;4.682;2023-07-13T06:33:10;24.20;47.80
41116;DHT22;26861;51.824;4.682;2023-07-13T06:40:28;24.20;47.40
41116;DHT22;26861;51.824;4.682;2023-07-13T06:42:55;24.20;47.80
41116;DHT22;26861;51.824;4.682;2023-07-13T06:45:21;24.50;65.10
41116;DHT22;26861;51.824;4.682;2023-07-13T06:50:25;24.20;47.60
41116;DHT22;26861;51.824;4.682;2023-07-13T06:55:18;24.20;47.50
41116;DHT22;26861;51.824;4.682;2023-07-13T06:57:44;24.20;48.10
41116;DHT22;26861;51.824;4.682;2023-07-13T07:00:11;24.20;48.10
41116;DHT22;26861;51.824;4.682;2023-07-13T07:02:37;24.20;48.20
41116;DHT22;26861;51.824;4.682;2023-07-13T07:05:04;24.20;48.30
41116;DHT22;26861;51.824;4.682;2023-07-13T07:09:56;24.20;47.70
41116;DHT22;26861;51.824;4.682;2023-07-13T07:14:49;24.20;47.70
41116;DHT22;26861;51.824;4.682;2023-07-13T07:17:16;24.20;48.40
41116;DHT22;26861;51.824;4.682;2023-07-13T07:19:42;24.20;48.30
41116;DHT22;26861;51.824;4.682;2023-07-13T07:22:08;24.20;48.50
41116;DHT22;26861;51.824;4.682;2023-07-13T07:29:26;24.20;48.00
41116;DHT22;26861;51.824;4.682;2023-07-13T07:31:54;24.20;49.20
41116;DHT22;26861;51.824;4.682;2023-07-13T08:23:09;24.40;49.30
41116;DHT22;26861;51.824;4.682;2023-07-13T08:28:03;24.40;49.30
41116;DHT22;26861;51.824;4.682;2023-07-13T08:42:53;24.50;67.20
41116;DHT22;26861;51.824;4.682;2023-07-13T08:48:02;24.50;49.60
41116;DHT22;26861;51.824;4.682;2023-07-13T08:50:33;24.50;49.80
41116;DHT22;26861;51.824;4.682;2023-07-13T08:53:02;24.50;49.80
41116;DHT22;26861;51.824;4.682;2023-07-13T08:55:34;24.50;50.00
41116;DHT22;26861;51.824;4.682;2023-07-13T08:58:15;24.60;50.10
41116;DHT22;26861;51.824;4.682;2023-07-13T09:01:02;24.50;50.10
41116;DHT22;26861;51.824;4.682;2023-07-13T09:03:37;24.60;50.70
41116;DHT22;26861;51.824;4.682;2023-07-13T09:06:07;24.30;50.20
41116;DHT22;26861;51.824;4.682;2023-07-13T09:08:59;24.50;51.30
41116;DHT22;26861;51.824;4.682;2023-07-13T09:11:41;24.60;50.70
41116;DHT22;26861;51.824;4.682;2023-07-13T09:14:38;24.10;50.50
41116;DHT22;26861;51.824;4.682;2023-07-13T09:17:10;25.10;50.90
41116;DHT22;26861;51.824;4.682;2023-07-13T09:19:37;24.70;50.80
41116;DHT22;26861;51.824;4.682;2023-07-13T09:22:05;24.70;50.70
41116;DHT22;26861;51.824;4.682;2023-07-13T09:27:30;23.50;66.80
41116;DHT22;26861;51.824;4.682;2023-07-13T09:32:38;24.90;50.60
41116;DHT22;26861;51.824;4.682;2023-07-13T09:35:11;25.00;50.60
41116;DHT22;26861;51.824;4.682;2023-07-13T09:37:38;25.00;50.60
41116;DHT22;26861;51.824;4.682;2023-07-13T09:43:21;25.00;67.20
41116;DHT22;26861;51.824;4.682;2023-07-13T09:45:48;25.00;50.00
41116;DHT22;26861;51.824;4.682;2023-07-13T09:48:15;25.00;51.90
41116;DHT22;26861;51.824;4.682;2023-07-13T09:50:42;25.10;50.50
41116;DHT22;26861;51.824;4.682;2023-07-13T09:53:18;25.10;50.30
41116;DHT22;26861;51.824;4.682;2023-07-13T09:55:48;25.20;50.00
41116;DHT22;26861;51.824;4.682;2023-07-13T09:58:26;25.10;50.70
41116;DHT22;26861;51.824;4.682;2023-07-13T10:01:03;25.20;49.90
41116;DHT22;26861;51.824;4.682;2023-07-13T10:03:33;25.30;50.00
41116;DHT22;26861;51.824;4.682;2023-07-13T10:06:22;25.10;66.40
41116;DHT22;26861;51.824;4.682;2023-07-13T10:08:52;25.30;49.70
41116;DHT22;26861;51.824;4.682;2023-07-13T10:11:22;25.30;49.50
41116;DHT22;26861;51.824;4.682;2023-07-13T10:13:56;25.30;49.70
41116;DHT22;26861;51.824;4.682;2023-07-13T10:16:23;25.40;49.60
41116;DHT22;26861;51.824;4.682;2023-07-13T10:18:55;25.40;48.40
41116;DHT22;26861;51.824;4.682;2023-07-13T10:21:37;25.50;49.60
41116;DHT22;26861;51.824;4.682;2023-07-13T10:24:16;25.20;65.90
41116;DHT22;26861;51.824;4.682;2023-07-13T10:29:48;25.50;48.90
41116;DHT22;26861;51.824;4.682;2023-07-13T10:32:24;25.30;50.10
41116;DHT22;26861;51.824;4.682;2023-07-13T10:37:27;25.90;48.00
41116;DHT22;26861;51.824;4.682;2023-07-13T10:39:56;25.70;46.00
41116;DHT22;26861;51.824;4.682;2023-07-13T10:42:40;25.80;45.80
41116;DHT22;26861;51.824;4.682;2023-07-13T10:45:21;25.80;47.20
41116;DHT22;26861;51.824;4.682;2023-07-13T10:47:51;26.20;62.40
41116;DHT22;26861;51.824;4.682;2023-07-13T10:50:24;25.90;46.20
41116;DHT22;26861;51.824;4.682;2023-07-13T10:52:55;26.00;45.30
41116;DHT22;26861;51.824;4.682;2023-07-13T10:55:32;26.00;45.40
41116;DHT22;26861;51.824;4.682;2023-07-13T10:58:03;26.10;45.80
41116;DHT22;26861;51.824;4.682;2023-07-13T11:00:47;26.10;46.80
41116;DHT22;26861;51.824;4.682;2023-07-13T11:03:17;26.20;46.50
41116;DHT22;26861;51.824;4.682;2023-07-13T11:05:44;26.30;47.00
41116;DHT22;26861;51.824;4.682;2023-07-13T11:08:51;26.30;46.00
41116;DHT22;26861;51.824;4.682;2023-07-13T11:21:32;26.50;44.20
41116;DHT22;26861;51.824;4.682;2023-07-13T11:27:01;27.10;44.40
41116;DHT22;26861;51.824;4.682;2023-07-13T11:29:41;27.10;43.60
41116;DHT22;26861;51.824;4.682;2023-07-13T11:32:30;26.80;43.80
41116;DHT22;26861;51.824;4.682;2023-07-13T11:34:57;27.00;61.00
41116;DHT22;26861;51.824;4.682;2023-07-13T11:37:24;26.90;45.20
41116;DHT22;26861;51.824;4.682;2023-07-13T11:39:52;27.10;45.30
41116;DHT22;26861;51.824;4.682;2023-07-13T11:42:20;27.10;44.90
41116;DHT22;26861;51.824;4.682;2023-07-13T11:44:49;27.10;44.80
41116;DHT22;26861;51.824;4.682;2023-07-13T11:47:21;27.20;45.70
41116;DHT22;26861;51.824;4.682;2023-07-13T11:49:50;27.20;44.20
41116;DHT22;26861;51.824;4.682;2023-07-13T11:52:31;27.30;44.90
41116;DHT22;26861;51.824;4.682;2023-07-13T11:55:00;27.30;44.20
41116;DHT22;26861;51.824;4.682;2023-07-13T11:57:32;27.30;44.80
41116;DHT22;26861;51.824;4.682;2023-07-13T12:00:23;27.70;62.10
41116;DHT22;26861;51.824;4.682;2023-07-13T12:02:55;27.30;45.00
41116;DHT22;26861;51.824;4.682;2023-07-13T12:05:22;27.30;45.50
41116;DHT22;26861;51.824;4.682;2023-07-13T12:07:49;27.30;45.20
41116;DHT22;26861;51.824;4.682;2023-07-13T12:10:22;27.30;45.00
41116;DHT22;26861;51.824;4.682;2023-07-13T12:12:53;27.30;45.40
41116;DHT22;26861;51.824;4.682;2023-07-13T12:15:21;27.20;44.50
41116;DHT22;26861;51.824;4.682;2023-07-13T12:17:48;27.20;44.00
41116;DHT22;26861;51.824;4.682;2023-07-13T12:20:24;27.20;45.70
41116;DHT22;26861;51.824;4.682;2023-07-13T12:22:51;27.20;44.50
41116;DHT22;26861;51.824;4.682;2023-07-13T12:25:19;27.20;45.60
41116;DHT22;26861;51.824;4.682;2023-07-13T12:27:50;27.30;45.80
41116;DHT22;26861;51.824;4.682;2023-07-13T12:30:28;27.30;45.90
41116;DHT22;26861;51.824;4.682;2023-07-13T12:33:01;27.00;61.90
41116;DHT22;26861;51.824;4.682;2023-07-13T12:35:30;27.20;45.80
41116;DHT22;26861;51.824;4.682;2023-07-13T12:37:58;27.30;46.00
41116;DHT22;26861;51.824;4.682;2023-07-13T12:40:36;27.30;46.50
41116;DHT22;26861;51.824;4.682;2023-07-13T12:43:03;27.20;62.00
41116;DHT22;26861;51.824;4.682;2023-07-13T12:45:32;27.40;46.00
41116;DHT22;26861;51.824;4.682;2023-07-13T12:48:06;27.50;44.00
41116;DHT22;26861;51.824;4.682;2023-07-13T12:50:42;27.40;44.70
41116;DHT22;26861;51.824;4.682;2023-07-13T12:53:29;27.70;40.70
41116;DHT22;26861;51.824;4.682;2023-07-13T12:55:59;27.60;42.00
41116;DHT22;26861;51.824;4.682;2023-07-13T12:58:41;27.80;40.70
41116;DHT22;26861;51.824;4.682;2023-07-13T13:01:10;28.10;50.30
41116;DHT22;26861;51.824;4.682;2023-07-13T13:03:40;27.80;40.70
41116;DHT22;26861;51.824;4.682;2023-07-13T13:08:47;27.70;41.70
41116;DHT22;26861;51.824;4.682;2023-07-13T13:11:18;27.70;44.70
41116;DHT22;26861;51.824;4.682;2023-07-13T13:13:45;27.70;44.90
41116;DHT22;26861;51.824;4.682;2023-07-13T13:16:43;27.80;44.60
41116;DHT22;26861;51.824;4.682;2023-07-13T13:21:43;27.80;44.70
41116;DHT22;26861;51.824;4.682;2023-07-13T13:24:18;27.80;45.00
41116;DHT22;26861;51.824;4.682;2023-07-13T13:26:46;27.80;45.10
41116;DHT22;26861;51.824;4.682;2023-07-13T13:29:19;27.80;45.00
41116;DHT22;26861;51.824;4.682;2023-07-13T13:31:46;27.80;45.00
41116;DHT22;26861;51.824;4.682;2023-07-13T13:34:15;28.00;61.00
41116;DHT22;26861;51.824;4.682;2023-07-13T13:36:42;28.10;61.30
41116;DHT22;26861;51.824;4.682;2023-07-13T13:39:22;27.80;45.00
41116;DHT22;26861;51.824;4.682;2023-07-13T13:41:49;27.80;45.30
41116;DHT22;26861;51.824;4.682;2023-07-13T13:44:17;27.80;45.30
41116;DHT22;26861;51.824;4.682;2023-07-13T13:46:49;27.80;45.30
41116;DHT22;26861;51.824;4.682;2023-07-13T13:49:18;27.70;45.20
41116;DHT22;26861;51.824;4.682;2023-07-13T13:51:46;27.80;45.20
41116;DHT22;26861;51.824;4.682;2023-07-13T13:54:15;27.90;45.20
41116;DHT22;26861;51.824;4.682;2023-07-13T13:56:43;27.90;45.00
41116;DHT22;26861;51.824;4.682;2023-07-13T13:59:10;27.90;44.80
41116;DHT22;26861;51.824;4.682;2023-07-13T14:01:37;28.00;44.90
41116;DHT22;26861;51.824;4.682;2023-07-13T14:04:05;28.00;44.80
41116;DHT22;26861;51.824;4.682;2023-07-13T14:06:32;28.00;44.90
41116;DHT22;26861;51.824;4.682;2023-07-13T14:09:00;28.00;44.90
41116;DHT22;26861;51.824;4.682;2023-07-13T14:11:27;27.90;44.80
41116;DHT22;26861;51.824;4.682;2023-07-13T14:13:58;27.90;44.90
41116;DHT22;26861;51.824;4.682;2023-07-13T14:16:30;27.90;45.00
41116;DHT22;26861;51.824;4.682;2023-07-13T14:18:58;27.90;61.20
41116;DHT22;26861;51.824;4.682;2023-07-13T14:21:27;27.80;44.30
41116;DHT22;26861;51.824;4.682;2023-07-13T14:23:54;27.70;45.00
41116;DHT22;26861;51.824;4.682;2023-07-13T14:26:24;27.80;43.80
41116;DHT22;26861;51.824;4.682;2023-07-13T14:28:53;27.80;44.20
41116;DHT22;26861;51.824;4.682;2023-07-13T14:31:21;27.80;43.50
41116;DHT22;26861;51.824;4.682;2023-07-13T14:33:48;27.80;43.80
41116;DHT22;26861;51.824;4.682;2023-07-13T14:36:33;27.80;43.40
41116;DHT22;26861;51.824;4.682;2023-07-13T14:39:08;27.90;42.80
41116;DHT22;26861;51.824;4.682;2023-07-13T14:41:36;27.90;42.30
41116;DHT22;26861;51.824;4.682;2023-07-13T14:44:12;28.00;41.30
41116;DHT22;26861;51.824;4.682;2023-07-13T14:46:38;28.00;41.90
41116;DHT22;26861;51.824;4.682;2023-07-13T14:51:39;28.10;42.10
41116;DHT22;26861;51.824;4.682;2023-07-13T14:54:08;28.10;43.70
41116;DHT22;26861;51.824;4.682;2023-07-13T15:03:53;28.30;42.00
41116;DHT22;26861;51.824;4.682;2023-07-13T15:06:20;28.30;43.70
41116;DHT22;26861;51.824;4.682;2023-07-13T15:08:49;28.30;42.50
41116;DHT22;26861;51.824;4.682;2023-07-13T15:16:21;28.30;42.60
41116;DHT22;26861;51.824;4.682;2023-07-13T15:18:49;28.00;58.50
41116;DHT22;26861;51.824;4.682;2023-07-13T15:21:21;28.30;42.90
41116;DHT22;26861;51.824;4.682;2023-07-13T15:23:49;28.10;44.00
41116;DHT22;26861;51.824;4.682;2023-07-13T15:26:17;28.10;43.00
41116;DHT22;26861;51.824;4.682;2023-07-13T15:28:45;28.00;43.50
41116;DHT22;26861;51.824;4.682;2023-07-13T15:31:22;28.00;44.00
41116;DHT22;26861;51.824;4.682;2023-07-13T15:33:51;28.20;60.10
41116;DHT22;26861;51.824;4.682;2023-07-13T15:36:21;27.80;43.70
41116;DHT22;26861;51.824;4.682;2023-07-13T15:38:50;27.80;44.30
41116;DHT22;26861;51.824;4.682;2023-07-13T15:41:22;27.80;44.30
41116;DHT22;26861;51.824;4.682;2023-07-13T15:43:50;26.60;43.40
41116;DHT22;26861;51.824;4.682;2023-07-13T15:46:22;28.00;60.80
41116;DHT22;26861;51.824;4.682;2023-07-13T15:48:50;27.70;44.00
41116;DHT22;26861;51.824;4.682;2023-07-13T15:51:23;27.70;44.60
41116;DHT22;26861;51.824;4.682;2023-07-13T15:53:53;27.70;44.80
41116;DHT22;26861;51.824;4.682;2023-07-13T15:56:23;27.70;44.50
41116;DHT22;26861;51.824;4.682;2023-07-13T15:58:51;27.80;44.60
41116;DHT22;26861;51.824;4.682;2023-07-13T16:01:17;28.00;60.40
41116;DHT22;26861;51.824;4.682;2023-07-13T16:03:46;27.80;44.30
41116;DHT22;26861;51.824;4.682;2023-07-13T16:08:49;27.70;43.90
41116;DHT22;26861;51.824;4.682;2023-07-13T16:11:26;27.60;44.20
41116;DHT22;26861;51.824;4.682;2023-07-13T16:13:54;27.60;44.40
41116;DHT22;26861;51.824;4.682;2023-07-13T16:16:30;27.60;44.50
41116;DHT22;26861;51.824;4.682;2023-07-13T16:19:01;27.50;44.50
41116;DHT22;26861;51.824;4.682;2023-07-13T16:21:31;27.50;44.50
41116;DHT22;26861;51.824;4.682;2023-07-13T16:24:00;27.50;44.90
41116;DHT22;26861;51.824;4.682;2023-07-13T16:26:44;27.50;44.90
41116;DHT22;26861;51.824;4.682;2023-07-13T16:29:21;27.40;44.90
41116;DHT22;26861;51.824;4.682;2023-07-13T16:36:52;27.40;44.00
41116;DHT22;26861;51.824;4.682;2023-07-13T16:44:17;27.40;43.90
41116;DHT22;26861;51.824;4.682;2023-07-13T16:46:50;27.40;44.40
41116;DHT22;26861;51.824;4.682;2023-07-13T16:49:28;27.40;44.60
41116;DHT22;26861;51.824;4.682;2023-07-13T16:51:56;27.40;44.60
41116;DHT22;26861;51.824;4.682;2023-07-13T16:54:30;27.40;44.50
41116;DHT22;26861;51.824;4.682;2023-07-13T16:56:58;27.10;45.20
41116;DHT22;26861;51.824;4.682;2023-07-13T16:59:33;27.40;45.00
41116;DHT22;26861;51.824;4.682;2023-07-13T17:02:00;27.40;45.00
41116;DHT22;26861;51.824;4.682;2023-07-13T17:04:27;27.40;45.20
41116;DHT22;26861;51.824;4.682;2023-07-13T17:06:56;27.40;45.20
41116;DHT22;26861;51.824;4.682;2023-07-13T17:09:23;27.30;45.10
41116;DHT22;26861;51.824;4.682;2023-07-13T17:11:51;27.40;45.20
41116;DHT22;26861;51.824;4.682;2023-07-13T17:14:21;27.40;45.30
41116;DHT22;26861;51.824;4.682;2023-07-13T17:16:54;27.30;45.30
41116;DHT22;26861;51.824;4.682;2023-07-13T17:19:26;27.30;44.90
41116;DHT22;26861;51.824;4.682;2023-07-13T17:21:53;27.30;44.90
41116;DHT22;26861;51.824;4.682;2023-07-13T17:24:23;27.30;45.00
41116;DHT22;26861;51.824;4.682;2023-07-13T17:29:17;27.30;44.90
41116;DHT22;26861;51.824;4.682;2023-07-13T17:34:16;27.20;45.00
41116;DHT22;26861;51.824;4.682;2023-07-13T17:39:19;27.20;45.00
41116;DHT22;26861;51.824;4.682;2023-07-13T17:44:14;27.20;44.90
41116;DHT22;26861;51.824;4.682;2023-07-13T17:46:45;27.10;45.10
41116;DHT22;26861;51.824;4.682;2023-07-13T17:51:47;27.10;45.00
41116;DHT22;26861;51.824;4.682;2023-07-13T18:01:35;27.00;45.10
41116;DHT22;26861;51.824;4.682;2023-07-13T18:04:08;27.00;45.80
41116;DHT22;26861;51.824;4.682;2023-07-13T18:06:37;27.00;45.30
41116;DHT22;26861;51.824;4.682;2023-07-13T18:09:17;27.00;45.40
41116;DHT22;26861;51.824;4.682;2023-07-13T18:11:44;26.90;45.50
41116;DHT22;26861;51.824;4.682;2023-07-13T18:14:11;26.90;45.70
41116;DHT22;26861;51.824;4.682;2023-07-13T18:16:38;26.90;45.50
41116;DHT22;26861;51.824;4.682;2023-07-13T18:19:10;26.90;45.10
41116;DHT22;26861;51.824;4.682;2023-07-13T18:21:40;26.80;45.10
41116;DHT22;26861;51.824;4.682;2023-07-13T18:24:08;26.80;45.20
41116;DHT22;26861;51.824;4.682;2023-07-13T18:26:35;26.80;45.00
41116;DHT22;26861;51.824;4.682;2023-07-13T18:31:33;26.80;44.60
41116;DHT22;26861;51.824;4.682;2023-07-13T18:34:00;26.70;45.70
41116;DHT22;26861;51.824;4.682;2023-07-13T18:36:28;26.70;45.10
41116;DHT22;26861;51.824;4.682;2023-07-13T18:38:54;26.70;45.20
41116;DHT22;26861;51.824;4.682;2023-07-13T18:41:21;26.70;45.30
41116;DHT22;26861;51.824;4.682;2023-07-13T18:43:49;26.70;45.20
41116;DHT22;26861;51.824;4.682;2023-07-13T18:48:43;26.70;44.50